createdAt,value
2019-05-03T00:02:26.452Z,15.73
2019-05-03T00:05:06.699Z,13.90
2019-05-03T00:07:36.293Z,18.37
2019-05-03T00:10:08.084Z,13.20
2019-05-03T00:12:37.118Z,15.50
2019-05-03T00:15:18.450Z,16.30
2019-05-03T00:17:47.413Z,16.80
2019-05-03T00:20:17.138Z,15.87
2019-05-03T00:22:47.200Z,17.43
2019-05-03T00:25:16.386Z,14.63
2019-05-03T00:27:45.241Z,15.63
2019-05-03T00:30:14.838Z,19.20
2019-05-03T00:32:44.991Z,15.60
2019-05-03T00:35:28.163Z,11.33
2019-05-03T00:37:58.771Z,13.03
2019-05-03T00:40:32.254Z,18.60
2019-05-03T00:43:02.324Z,13.63
2019-05-03T00:45:31.735Z,13.60
2019-05-03T00:48:01.878Z,17.27
2019-05-03T00:50:32.181Z,15.03
2019-05-03T00:53:02.379Z,18.20
2019-05-03T00:55:32.817Z,18.50
2019-05-03T00:58:02.725Z,15.60
2019-05-03T01:00:32.370Z,15.23
2019-05-03T01:03:02.137Z,17.43
2019-05-03T01:05:33.117Z,20.50
2019-05-03T01:08:02.216Z,15.80
2019-05-03T01:10:33.099Z,13.77
2019-05-03T01:13:02.765Z,16.13
2019-05-03T01:15:36.314Z,14.03
2019-05-03T01:18:08.265Z,16.87
2019-05-03T01:20:36.920Z,20.33
2019-05-03T01:23:05.942Z,27.33
2019-05-03T01:25:35.614Z,23.70
2019-05-03T01:28:04.443Z,22.87
2019-05-03T01:30:33.123Z,25.70
2019-05-03T01:33:02.926Z,25.27
2019-05-03T01:35:32.273Z,27.77
2019-05-03T01:38:02.607Z,26.73
2019-05-03T01:40:32.747Z,25.43
2019-05-03T01:43:02.456Z,31.63
2019-05-03T01:45:31.876Z,24.97
2019-05-03T01:48:03.141Z,22.57
2019-05-03T01:50:36.513Z,30.40
2019-05-03T01:53:10.098Z,26.80
2019-05-03T01:55:54.874Z,32.00
2019-05-03T01:58:24.458Z,29.60
2019-05-03T02:01:03.997Z,27.30
2019-05-03T02:03:34.727Z,29.50
2019-05-03T02:06:03.440Z,24.20
2019-05-03T02:08:32.680Z,19.37
2019-05-03T02:11:02.202Z,24.73
2019-05-03T02:13:32.173Z,20.13
2019-05-03T02:16:02.304Z,23.17
2019-05-03T02:18:31.803Z,24.17
2019-05-03T02:21:01.794Z,18.13
2019-05-03T02:23:31.986Z,25.80
2019-05-03T02:26:03.126Z,16.67
2019-05-03T02:28:32.674Z,17.53
2019-05-03T02:31:03.563Z,12.67
2019-05-03T02:33:32.896Z,17.60
2019-05-03T02:36:03.649Z,15.43
2019-05-03T02:38:33.994Z,15.57
2019-05-03T02:41:03.372Z,15.53
2019-05-03T02:43:40.738Z,30.80
2019-05-03T02:46:25.311Z,92.07
2019-05-03T02:49:02.805Z,46.77
2019-05-03T02:51:32.361Z,32.37
2019-05-03T02:54:01.375Z,36.80
2019-05-03T02:56:30.417Z,32.83
2019-05-03T02:58:59.367Z,36.63
2019-05-03T03:01:29.595Z,35.10
2019-05-03T03:04:01.016Z,31.90
2019-05-03T03:06:36.441Z,28.80
2019-05-03T03:09:05.726Z,34.40
2019-05-03T03:11:38.233Z,29.93
2019-05-03T03:14:11.273Z,25.47
2019-05-03T03:16:45.291Z,25.20
2019-05-03T03:19:16.066Z,31.13
2019-05-03T03:21:47.368Z,20.97
2019-05-03T03:24:21.397Z,18.57
2019-05-03T03:26:52.702Z,17.10
2019-05-03T03:29:25.623Z,18.10
2019-05-03T03:32:08.494Z,18.00
2019-05-03T03:34:47.562Z,14.97
2019-05-03T03:37:12.065Z,15.33
2019-05-03T03:39:45.735Z,18.77
2019-05-03T03:42:16.201Z,19.83
2019-05-03T03:44:46.059Z,17.37
2019-05-03T03:47:16.905Z,15.27
2019-05-03T03:49:48.507Z,21.20
2019-05-03T03:52:20.858Z,14.63
2019-05-03T03:54:51.317Z,18.43
2019-05-03T03:57:25.262Z,14.53
2019-05-03T03:59:56.264Z,18.63
2019-05-03T04:02:26.512Z,16.03
2019-05-03T04:04:56.279Z,22.50
2019-05-03T04:07:26.396Z,16.43
2019-05-03T04:09:57.239Z,16.47
2019-05-03T04:12:27.180Z,19.40
2019-05-03T04:14:57.776Z,21.83
2019-05-03T04:17:45.715Z,30.13
2019-05-03T04:20:17.931Z,22.60
2019-05-03T04:22:46.564Z,30.63
2019-05-03T04:25:15.744Z,25.73
2019-05-03T04:27:45.841Z,25.73
2019-05-03T04:30:16.593Z,30.83
2019-05-03T04:32:45.543Z,29.30
2019-05-03T04:35:16.326Z,31.50
2019-05-03T04:37:45.658Z,38.27
2019-05-03T04:40:15.936Z,46.87
2019-05-03T04:42:46.798Z,37.53
2019-05-03T04:45:16.850Z,39.37
2019-05-03T04:47:46.702Z,43.03
2019-05-03T04:50:16.579Z,37.57
2019-05-03T04:52:47.850Z,44.33
2019-05-03T04:55:17.418Z,42.43
2019-05-03T04:57:50.051Z,43.43
2019-05-03T05:00:17.319Z,36.47
2019-05-03T05:02:48.823Z,37.87
2019-05-03T05:05:20.174Z,28.50
2019-05-03T05:07:48.831Z,31.00
2019-05-03T05:10:19.055Z,21.17
2019-05-03T05:12:47.788Z,29.87
2019-05-03T05:15:16.963Z,23.90
2019-05-03T05:17:47.612Z,21.13
2019-05-03T05:20:19.654Z,21.67
2019-05-03T05:22:48.554Z,20.87
2019-05-03T05:25:18.819Z,22.60
2019-05-03T05:28:05.346Z,22.77
2019-05-03T05:30:35.415Z,25.17
2019-05-03T05:33:05.475Z,23.80
2019-05-03T05:35:35.254Z,25.90
2019-05-03T05:38:04.735Z,32.43
2019-05-03T05:40:34.921Z,25.00
2019-05-03T05:43:04.914Z,27.90
2019-05-03T05:45:35.029Z,28.87
2019-05-03T05:48:05.354Z,87.93
2019-05-03T05:50:38.728Z,72.90
2019-05-03T05:53:15.131Z,91.87
2019-05-03T05:55:57.151Z,67.53
2019-05-03T05:58:34.889Z,81.93
2019-05-03T06:01:06.166Z,46.77
2019-05-03T06:03:35.783Z,59.57
2019-05-03T06:06:06.444Z,40.70
2019-05-03T06:08:36.871Z,53.50
2019-05-03T06:11:09.115Z,70.70
2019-05-03T06:13:40.453Z,48.37
2019-05-03T06:16:11.571Z,86.87
2019-05-03T06:18:54.546Z,66.30
2019-05-03T06:21:31.234Z,77.17
2019-05-03T06:24:05.751Z,115.97
2019-05-03T06:26:44.320Z,85.87
2019-05-03T06:29:14.970Z,70.70
2019-05-03T06:31:48.727Z,59.57
2019-05-03T06:34:18.262Z,53.53
2019-05-03T06:36:51.415Z,37.47
2019-05-03T06:39:20.003Z,38.47
2019-05-03T06:41:50.295Z,35.80
2019-05-03T06:44:24.719Z,28.73
2019-05-03T06:46:55.130Z,29.97
2019-05-03T06:49:27.199Z,23.80
2019-05-03T06:51:56.243Z,27.70
2019-05-03T06:54:29.973Z,23.63
2019-05-03T06:57:00.135Z,24.40
2019-05-03T06:59:31.017Z,34.23
2019-05-03T07:02:06.259Z,24.47
2019-05-03T07:04:39.484Z,30.13
2019-05-03T07:07:15.536Z,27.53
2019-05-03T07:09:57.955Z,32.13
2019-05-03T07:12:29.089Z,35.30
2019-05-03T07:14:59.612Z,26.43
2019-05-03T07:17:28.425Z,24.40
2019-05-03T07:19:57.888Z,27.00
2019-05-03T07:22:27.683Z,27.17
2019-05-03T07:24:57.843Z,33.50
2019-05-03T07:27:29.164Z,19.40
2019-05-03T07:29:58.810Z,21.77
2019-05-03T07:32:30.065Z,16.13
2019-05-03T07:34:59.607Z,14.37
2019-05-03T07:37:31.243Z,18.50
2019-05-03T07:40:00.201Z,20.47
2019-05-03T07:42:29.253Z,24.27
2019-05-03T07:44:59.566Z,16.43
2019-05-03T07:47:29.156Z,18.57
2019-05-03T07:49:57.730Z,26.17
2019-05-03T07:52:27.271Z,25.00
2019-05-03T07:54:56.931Z,20.03
2019-05-03T07:57:28.057Z,19.40
2019-05-03T07:59:57.682Z,18.67
2019-05-03T08:02:27.538Z,15.73
2019-05-03T08:04:59.806Z,19.73
2019-05-03T08:07:31.631Z,19.63
2019-05-03T08:10:00.257Z,18.83
2019-05-03T08:12:28.817Z,13.80
2019-05-03T08:14:57.817Z,22.37
2019-05-03T08:17:27.445Z,22.23
2019-05-03T08:19:56.606Z,33.20
2019-05-03T08:22:25.783Z,22.23
2019-05-03T08:24:56.481Z,19.03
2019-05-03T08:27:25.973Z,18.93
2019-05-03T08:29:55.802Z,20.03
2019-05-03T08:32:26.196Z,22.67
2019-05-03T08:35:11.798Z,20.50
2019-05-03T08:37:48.111Z,17.73
2019-05-03T08:40:17.941Z,30.90
2019-05-03T08:42:46.922Z,25.00
2019-05-03T08:45:17.118Z,24.20
2019-05-03T08:47:46.648Z,15.73
2019-05-03T08:50:21.217Z,17.47
2019-05-03T08:52:45.819Z,18.97
2019-05-03T08:55:15.827Z,22.43
2019-05-03T08:57:44.953Z,26.03
2019-05-03T09:00:16.153Z,18.03
2019-05-03T09:02:47.019Z,24.07
2019-05-03T09:05:18.576Z,21.17
2019-05-03T09:07:50.813Z,23.00
2019-05-03T09:10:20.974Z,22.73
2019-05-03T09:13:08.809Z,24.20
2019-05-03T09:15:40.701Z,21.60
2019-05-03T09:18:09.711Z,21.60
2019-05-03T09:20:39.330Z,24.20
2019-05-03T09:23:09.012Z,28.43
2019-05-03T09:25:38.011Z,34.33
2019-05-03T09:28:09.527Z,25.23
2019-05-03T09:30:39.254Z,16.83
2019-05-03T09:33:09.158Z,24.47
2019-05-03T09:35:38.452Z,16.13
2019-05-03T09:38:08.696Z,20.00
2019-05-03T09:40:37.370Z,18.67
2019-05-03T09:43:07.132Z,25.37
2019-05-03T09:45:39.334Z,17.20
2019-05-03T09:48:08.689Z,19.07
2019-05-03T09:50:38.280Z,14.83
2019-05-03T09:53:09.100Z,11.07
2019-05-03T09:55:41.770Z,16.73
2019-05-03T09:58:11.448Z,11.30
2019-05-03T10:00:40.489Z,12.10
2019-05-03T10:03:09.133Z,15.17
2019-05-03T10:05:39.652Z,16.87
2019-05-03T10:08:08.729Z,12.90
2019-05-03T10:10:44.874Z,14.60
2019-05-03T10:13:23.208Z,16.03
2019-05-03T10:15:45.753Z,11.30
2019-05-03T10:18:16.886Z,10.40
2019-05-03T10:20:47.830Z,11.07
2019-05-03T10:23:18.486Z,16.13
2019-05-03T10:25:47.116Z,11.97
2019-05-03T10:28:15.916Z,7.30
2019-05-03T10:30:45.137Z,9.80
2019-05-03T10:33:21.694Z,12.20
2019-05-03T10:35:50.359Z,16.40
2019-05-03T10:38:20.582Z,18.03
2019-05-03T10:40:49.309Z,15.47
2019-05-03T10:43:18.921Z,15.60
2019-05-03T10:45:47.966Z,12.53
2019-05-03T10:48:16.978Z,10.30
2019-05-03T10:50:45.618Z,11.17
2019-05-03T10:53:22.509Z,8.00
2019-05-03T10:56:09.400Z,10.53
2019-05-03T10:58:39.902Z,10.80
2019-05-03T11:01:09.570Z,11.63
2019-05-03T11:03:39.197Z,14.67
2019-05-03T11:06:09.907Z,8.23
2019-05-03T11:08:39.383Z,12.73
2019-05-03T11:11:09.054Z,15.73
2019-05-03T11:13:37.825Z,14.47
2019-05-03T11:16:07.472Z,19.83
2019-05-03T11:18:36.246Z,15.40
2019-05-03T11:21:05.286Z,20.57
2019-05-03T11:23:36.625Z,21.53
2019-05-03T11:26:05.406Z,13.93
2019-05-03T11:28:35.979Z,17.33
2019-05-03T11:31:21.211Z,16.20
2019-05-03T11:33:50.036Z,18.13
2019-05-03T11:36:20.314Z,11.17
2019-05-03T11:38:49.036Z,14.53
2019-05-03T11:41:29.464Z,10.17
2019-05-03T11:43:48.029Z,10.40
2019-05-03T11:46:17.185Z,12.83
2019-05-03T11:48:46.013Z,11.43
2019-05-03T11:51:15.221Z,13.60
2019-05-03T11:53:45.058Z,8.57
2019-05-03T11:56:14.847Z,17.53
2019-05-03T11:58:45.639Z,15.37
2019-05-03T12:01:19.710Z,21.03
2019-05-03T12:03:47.517Z,13.93
2019-05-03T12:06:16.239Z,7.93
2019-05-03T12:08:44.998Z,8.90
2019-05-03T12:11:15.058Z,12.13
2019-05-03T12:13:45.717Z,13.13
2019-05-03T12:16:22.499Z,11.13
2019-05-03T12:18:52.888Z,12.77
2019-05-03T12:21:18.112Z,12.80
2019-05-03T12:23:46.247Z,11.57
2019-05-03T12:26:17.244Z,14.37
2019-05-03T12:28:45.710Z,16.37
2019-05-03T12:31:28.208Z,14.80
2019-05-03T12:33:45.920Z,15.80
2019-05-03T12:36:15.494Z,17.60
2019-05-03T12:38:44.220Z,14.57
2019-05-03T12:41:14.929Z,11.67
2019-05-03T12:43:43.239Z,12.77
2019-05-03T12:46:11.866Z,10.73
2019-05-03T12:48:40.506Z,15.27
2019-05-03T12:51:09.627Z,11.13
2019-05-03T12:53:38.592Z,11.27
2019-05-03T12:56:11.719Z,11.63
2019-05-03T12:58:51.179Z,10.77
2019-05-03T13:01:41.917Z,8.17
2019-05-03T13:04:08.246Z,10.90
2019-05-03T13:06:38.573Z,9.67
2019-05-03T13:09:07.495Z,16.87
2019-05-03T13:11:51.162Z,10.07
2019-05-03T13:14:08.297Z,9.30
2019-05-03T13:16:36.848Z,9.30
2019-05-03T13:19:05.711Z,10.80
2019-05-03T13:21:35.497Z,10.47
2019-05-03T13:24:05.498Z,9.83
2019-05-03T13:26:35.070Z,11.10
2019-05-03T13:29:05.846Z,8.80
2019-05-03T13:31:34.767Z,10.00
2019-05-03T13:34:05.471Z,18.83
2019-05-03T13:36:34.900Z,28.33
2019-05-03T13:39:14.063Z,19.17
2019-05-03T13:41:35.394Z,41.20
2019-05-03T13:44:05.195Z,19.00
2019-05-03T13:46:35.354Z,15.83
2019-05-03T13:49:05.400Z,13.37
2019-05-03T13:51:35.822Z,16.00
2019-05-03T13:54:05.505Z,5.73
2019-05-03T13:56:35.302Z,11.07
2019-05-03T13:59:05.920Z,20.50
2019-05-03T14:01:34.618Z,10.60
2019-05-03T14:04:05.165Z,10.93
2019-05-03T14:06:36.522Z,9.60
2019-05-03T14:09:06.049Z,9.40
2019-05-03T14:11:35.380Z,14.13
2019-05-03T14:14:04.714Z,10.63
2019-05-03T14:16:33.564Z,11.93
2019-05-03T14:19:05.275Z,13.27
2019-05-03T14:21:44.980Z,17.27
2019-05-03T14:24:15.638Z,21.70
2019-05-03T14:26:44.782Z,13.60
2019-05-03T14:29:14.894Z,10.73
2019-05-03T14:31:45.362Z,10.67
2019-05-03T14:34:16.924Z,14.93
2019-05-03T14:36:46.127Z,13.70
2019-05-03T14:39:15.185Z,6.40
2019-05-03T14:41:46.553Z,14.90
2019-05-03T14:44:17.650Z,12.10
2019-05-03T14:46:45.808Z,12.80
2019-05-03T14:49:14.875Z,11.00
2019-05-03T14:51:45.378Z,9.83
2019-05-03T14:54:14.551Z,10.60
2019-05-03T14:57:01.836Z,17.67
2019-05-03T14:59:41.004Z,12.00
2019-05-03T15:02:11.325Z,13.50
2019-05-03T15:04:40.030Z,16.03
2019-05-03T15:07:08.665Z,17.10
2019-05-03T15:09:38.896Z,11.30
2019-05-03T15:12:07.611Z,11.10
2019-05-03T15:14:36.267Z,8.37
2019-05-03T15:17:05.437Z,7.70
2019-05-03T15:19:34.985Z,12.77
2019-05-03T15:22:05.594Z,9.03
2019-05-03T15:24:34.611Z,10.97
2019-05-03T15:27:04.942Z,11.47
2019-05-03T15:29:35.469Z,12.97
2019-05-03T15:32:05.021Z,10.60
2019-05-03T15:34:35.395Z,14.93
2019-05-03T15:37:05.404Z,13.10
2019-05-03T15:39:34.376Z,13.57
2019-05-03T15:42:05.093Z,16.87
2019-05-03T15:44:51.524Z,25.57
2019-05-03T15:47:25.372Z,15.03
2019-05-03T15:49:55.370Z,14.07
2019-05-03T15:52:24.696Z,7.90
2019-05-03T15:54:55.098Z,8.67
2019-05-03T15:57:25.255Z,22.40
2019-05-03T15:59:55.168Z,10.63
2019-05-03T16:02:24.658Z,11.77
2019-05-03T16:04:55.433Z,26.80
2019-05-03T16:07:25.027Z,18.17
2019-05-03T16:09:55.285Z,24.13
2019-05-03T16:12:24.041Z,17.87
2019-05-03T16:14:52.598Z,19.63
2019-05-03T16:17:21.255Z,15.57
2019-05-03T16:19:49.893Z,53.73
2019-05-03T16:22:18.588Z,13.20
2019-05-03T16:24:47.285Z,15.83
2019-05-03T16:27:29.822Z,33.93
2019-05-03T16:29:59.130Z,20.23
2019-05-03T16:32:27.821Z,15.53
2019-05-03T16:34:56.464Z,14.10
2019-05-03T16:37:25.538Z,23.80
2019-05-03T16:39:55.049Z,27.37
2019-05-03T16:42:24.839Z,16.43
2019-05-03T16:44:55.002Z,26.13
2019-05-03T16:47:24.925Z,18.17
2019-05-03T16:49:53.713Z,22.90
2019-05-03T16:52:22.356Z,16.00
2019-05-03T16:54:51.035Z,16.07
2019-05-03T16:57:19.608Z,17.90
2019-05-03T16:59:48.266Z,21.77
2019-05-03T17:02:17.348Z,17.97
2019-05-03T17:04:47.893Z,18.80
2019-05-03T17:07:30.080Z,16.57
2019-05-03T17:10:00.315Z,16.93
2019-05-03T17:12:30.722Z,14.73
2019-05-03T17:14:59.349Z,16.03
2019-05-03T17:17:28.037Z,12.43
2019-05-03T17:19:56.747Z,19.17
2019-05-03T17:22:25.373Z,25.10
2019-05-03T17:24:55.132Z,18.67
2019-05-03T17:27:24.990Z,23.73
2019-05-03T17:29:55.227Z,20.07
2019-05-03T17:32:24.522Z,19.10
2019-05-03T17:34:54.880Z,131.87
2019-05-03T17:37:25.471Z,21.40
2019-05-03T17:40:07.770Z,15.53
2019-05-03T17:42:54.783Z,16.50
2019-05-03T17:45:25.437Z,17.83
2019-05-03T17:47:54.858Z,16.87
2019-05-03T17:50:23.576Z,22.53
2019-05-03T17:53:12.219Z,17.27
2019-05-03T17:55:51.448Z,21.03
2019-05-03T17:58:37.012Z,26.87
2019-05-03T18:01:23.844Z,16.23
2019-05-03T18:04:03.898Z,16.80
2019-05-03T18:06:26.137Z,12.87
2019-05-03T18:08:56.518Z,28.87
2019-05-03T18:11:29.193Z,19.03
2019-05-03T18:13:57.839Z,23.03
2019-05-03T18:16:26.508Z,14.07
2019-05-03T18:18:55.324Z,21.33
2019-05-03T18:21:24.454Z,29.40
2019-05-03T18:23:54.511Z,22.23
2019-05-03T18:26:24.937Z,22.10
2019-05-03T18:28:55.307Z,11.47
2019-05-03T18:31:24.999Z,15.83
2019-05-03T18:33:54.735Z,15.73
2019-05-03T18:36:25.297Z,18.57
2019-05-03T18:38:55.250Z,20.63
2019-05-03T18:41:25.508Z,21.43
2019-05-03T18:44:01.820Z,24.93
2019-05-03T18:46:32.201Z,17.77
2019-05-03T18:49:00.895Z,21.60
2019-05-03T18:51:29.535Z,17.30
2019-05-03T18:53:58.190Z,11.40
2019-05-03T18:56:26.968Z,18.73
2019-05-03T18:58:55.590Z,16.67
2019-05-03T19:01:25.329Z,20.70
2019-05-03T19:03:55.784Z,22.73
2019-05-03T19:06:24.417Z,24.50
2019-05-03T19:09:10.025Z,18.97
2019-05-03T19:11:43.032Z,19.93
2019-05-03T19:14:25.576Z,20.83
2019-05-03T19:17:15.378Z,14.83
2019-05-03T19:19:45.784Z,16.97
2019-05-03T19:22:15.380Z,14.33
2019-05-03T19:24:44.530Z,19.47
2019-05-03T19:27:13.400Z,16.43
2019-05-03T19:29:42.110Z,17.67
2019-05-03T19:32:10.863Z,18.13
2019-05-03T19:34:50.054Z,19.83
2019-05-03T19:37:09.918Z,21.50
2019-05-03T19:39:38.565Z,15.33
2019-05-03T19:42:07.281Z,12.30
2019-05-03T19:44:36.998Z,13.90
2019-05-03T19:47:06.785Z,14.35
2019-05-03T19:49:35.512Z,15.50
2019-05-03T19:52:05.227Z,17.17
2019-05-03T19:54:36.043Z,15.47
2019-05-03T19:57:05.015Z,14.90
2019-05-03T19:59:50.493Z,15.77
2019-05-03T20:02:26.955Z,27.67
2019-05-03T20:05:12.422Z,13.43
2019-05-03T20:07:45.865Z,13.47
2019-05-03T20:10:17.870Z,12.40
2019-05-03T20:12:45.541Z,15.07
2019-05-03T20:15:14.597Z,18.57
2019-05-03T20:17:54.665Z,79.13
2019-05-03T20:20:15.473Z,27.03
2019-05-03T20:22:45.077Z,17.70
2019-05-03T20:25:15.195Z,22.17
2019-05-03T20:27:44.535Z,12.90
2019-05-03T20:30:15.059Z,16.17
2019-05-03T20:32:45.040Z,15.97
2019-05-03T20:35:18.849Z,23.23
2019-05-03T20:37:44.906Z,19.23
2019-05-03T20:40:15.352Z,12.50
2019-05-03T20:43:02.074Z,18.50
2019-05-03T20:45:44.549Z,12.33
2019-05-03T20:48:15.049Z,11.33
2019-05-03T20:50:44.728Z,15.20
2019-05-03T20:53:13.519Z,12.57
2019-05-03T20:55:42.155Z,7.33
2019-05-03T20:58:11.478Z,21.03
2019-05-03T21:00:40.369Z,15.10
2019-05-03T21:03:09.085Z,14.10
2019-05-03T21:05:37.746Z,16.90
2019-05-03T21:08:07.252Z,12.23
2019-05-03T21:10:35.823Z,13.63
2019-05-03T21:13:05.469Z,13.80
2019-05-03T21:15:52.577Z,12.10
2019-05-03T21:18:24.374Z,15.73
2019-05-03T21:21:13.293Z,11.53
2019-05-03T21:23:46.674Z,10.80
2019-05-03T21:26:16.623Z,15.53
2019-05-03T21:28:45.536Z,17.50
2019-05-03T21:31:15.634Z,12.70
2019-05-03T21:33:44.576Z,14.67
2019-05-03T21:36:14.968Z,12.03
2019-05-03T21:38:44.393Z,14.93
2019-05-03T21:41:15.688Z,16.23
2019-05-03T21:43:45.113Z,20.67
2019-05-03T21:46:15.545Z,17.63
2019-05-03T21:48:49.004Z,13.90
2019-05-03T21:51:17.730Z,17.90
2019-05-03T21:53:46.375Z,16.17
2019-05-03T21:56:15.053Z,22.63
2019-05-03T21:58:44.715Z,11.70
2019-05-03T22:01:15.560Z,13.03
2019-05-03T22:03:44.882Z,16.13
2019-05-03T22:06:15.427Z,10.13
2019-05-03T22:08:45.535Z,15.53
2019-05-03T22:11:14.850Z,13.27
2019-05-03T22:13:45.474Z,12.73
2019-05-03T22:16:15.823Z,15.37
2019-05-03T22:18:45.484Z,17.73
2019-05-03T22:21:27.508Z,17.80
2019-05-03T22:24:00.590Z,16.00
2019-05-03T22:26:47.553Z,15.13
2019-05-03T22:29:17.157Z,10.17
2019-05-03T22:31:45.965Z,11.60
2019-05-03T22:34:15.101Z,15.17
2019-05-03T22:36:44.404Z,13.23
2019-05-03T22:39:13.208Z,10.43
2019-05-03T22:41:41.804Z,12.53
2019-05-03T22:44:10.613Z,15.97
2019-05-03T22:46:39.354Z,13.27
2019-05-03T22:49:08.027Z,13.83
2019-05-03T22:51:36.746Z,9.67
2019-05-03T22:54:05.396Z,10.73
2019-05-03T22:56:35.574Z,13.13
2019-05-03T22:59:05.867Z,10.77
2019-05-03T23:01:35.268Z,9.23
2019-05-03T23:04:05.596Z,14.73
2019-05-03T23:06:34.391Z,12.10
2019-05-03T23:09:05.025Z,12.50
2019-05-03T23:11:35.325Z,11.00
2019-05-03T23:14:04.870Z,15.20
2019-05-03T23:16:35.747Z,13.17
2019-05-03T23:19:05.566Z,15.63
2019-05-03T23:21:41.858Z,14.37
2019-05-03T23:24:10.685Z,12.73
2019-05-03T23:26:39.378Z,10.17
2019-05-03T23:29:08.050Z,10.33
2019-05-03T23:31:36.818Z,13.73
2019-05-03T23:34:05.444Z,11.97
2019-05-03T23:36:36.251Z,11.13
2019-05-03T23:39:07.613Z,15.20
2019-05-03T23:41:36.349Z,11.77
2019-05-03T23:44:04.996Z,10.33
2019-05-03T23:46:38.129Z,8.93
2019-05-03T23:49:06.765Z,10.60
2019-05-03T23:51:46.036Z,10.00
2019-05-03T23:54:15.059Z,11.17
2019-05-03T23:56:45.758Z,9.70
2019-05-03T23:59:14.883Z,8.87
